sensor_id;sensor_type;location;lat;lon;timestamp;P1;durP1;ratioP1;P2;durP2;ratioP2
1174;SDS011;576;48.418;10.074;2023-03-20T00:02:04;1.83;;;1.73;;
1174;SDS011;576;48.418;10.074;2023-03-20T00:04:33;1.83;;;1.73;;
1174;SDS011;576;48.418;10.074;2023-03-20T00:07:01;4.20;;;2.47;;
1174;SDS011;576;48.418;10.074;2023-03-20T00:09:30;2.60;;;2.00;;
1174;SDS011;576;48.418;10.074;2023-03-20T00:11:58;1.90;;;1.80;;
1174;SDS011;576;48.418;10.074;2023-03-20T00:14:26;2.50;;;1.90;;
1174;SDS011;576;48.418;10.074;2023-03-20T00:16:55;2.40;;;2.20;;
1174;SDS011;576;48.418;10.074;2023-03-20T00:19:25;2.07;;;1.97;;
1174;SDS011;576;48.418;10.074;2023-03-20T00:21:56;1.83;;;1.60;;
1174;SDS011;576;48.418;10.074;2023-03-20T00:24:24;1.90;;;1.67;;
1174;SDS011;576;48.418;10.074;2023-03-20T00:26:52;2.30;;;1.97;;
1174;SDS011;576;48.418;10.074;2023-03-20T00:29:21;2.90;;;2.10;;
1174;SDS011;576;48.418;10.074;2023-03-20T00:31:51;1.90;;;1.70;;
1174;SDS011;576;48.418;10.074;2023-03-20T00:34:21;2.20;;;2.00;;
1174;SDS011;576;48.418;10.074;2023-03-20T00:36:52;1.80;;;1.70;;
1174;SDS011;576;48.418;10.074;2023-03-20T00:39:21;1.80;;;1.70;;
1174;SDS011;576;48.418;10.074;2023-03-20T00:41:50;2.10;;;2.00;;
1174;SDS011;576;48.418;10.074;2023-03-20T00:44:22;1.90;;;1.80;;
1174;SDS011;576;48.418;10.074;2023-03-20T00:46:53;3.60;;;2.00;;
1174;SDS011;576;48.418;10.074;2023-03-20T00:49:24;2.10;;;2.00;;
1174;SDS011;576;48.418;10.074;2023-03-20T00:51:55;1.93;;;1.80;;
1174;SDS011;576;48.418;10.074;2023-03-20T00:54:24;1.83;;;1.73;;
1174;SDS011;576;48.418;10.074;2023-03-20T00:56:53;2.03;;;1.90;;
1174;SDS011;576;48.418;10.074;2023-03-20T00:59:25;1.90;;;1.80;;
1174;SDS011;576;48.418;10.074;2023-03-20T01:01:56;2.00;;;1.90;;
1174;SDS011;576;48.418;10.074;2023-03-20T01:04:27;1.73;;;1.63;;
1174;SDS011;576;48.418;10.074;2023-03-20T01:07:02;1.73;;;1.63;;
1174;SDS011;576;48.418;10.074;2023-03-20T01:09:31;2.07;;;1.87;;
1174;SDS011;576;48.418;10.074;2023-03-20T01:11:59;2.33;;;1.80;;
1174;SDS011;576;48.418;10.074;2023-03-20T01:14:28;2.40;;;2.20;;
1174;SDS011;576;48.418;10.074;2023-03-20T01:16:56;2.20;;;2.00;;
1174;SDS011;576;48.418;10.074;2023-03-20T01:19:24;2.00;;;1.90;;
1174;SDS011;576;48.418;10.074;2023-03-20T01:21:53;2.10;;;2.00;;
1174;SDS011;576;48.418;10.074;2023-03-20T01:24:22;2.00;;;1.80;;
1174;SDS011;576;48.418;10.074;2023-03-20T01:26:51;1.77;;;1.67;;
1174;SDS011;576;48.418;10.074;2023-03-20T01:29:21;1.63;;;1.53;;
1174;SDS011;576;48.418;10.074;2023-03-20T01:31:51;2.63;;;2.27;;
1174;SDS011;576;48.418;10.074;2023-03-20T01:34:21;2.50;;;2.27;;
1174;SDS011;576;48.418;10.074;2023-03-20T01:36:50;1.90;;;1.70;;
1174;SDS011;576;48.418;10.074;2023-03-20T01:39:20;2.13;;;1.97;;
1174;SDS011;576;48.418;10.074;2023-03-20T01:41:55;2.00;;;1.83;;
1174;SDS011;576;48.418;10.074;2023-03-20T01:44:27;1.93;;;1.83;;
1174;SDS011;576;48.418;10.074;2023-03-20T01:46:57;2.00;;;1.73;;
1174;SDS011;576;48.418;10.074;2023-03-20T01:52:42;2.10;;;1.80;;
1174;SDS011;576;48.418;10.074;2023-03-20T01:55:12;2.03;;;1.77;;
1174;SDS011;576;48.418;10.074;2023-03-20T01:57:42;1.77;;;1.67;;
1174;SDS011;576;48.418;10.074;2023-03-20T02:00:12;1.80;;;1.70;;
1174;SDS011;576;48.418;10.074;2023-03-20T02:02:42;1.67;;;1.57;;
1174;SDS011;576;48.418;10.074;2023-03-20T02:05:28;2.73;;;1.80;;
1174;SDS011;576;48.418;10.074;2023-03-20T02:08:04;1.63;;;1.53;;
1174;SDS011;576;48.418;10.074;2023-03-20T02:10:49;2.17;;;1.83;;
1174;SDS011;576;48.418;10.074;2023-03-20T02:13:24;1.70;;;1.60;;
1174;SDS011;576;48.418;10.074;2023-03-20T02:15:59;2.00;;;1.90;;
1174;SDS011;576;48.418;10.074;2023-03-20T02:18:42;3.30;;;1.77;;
1174;SDS011;576;48.418;10.074;2023-03-20T02:21:25;1.50;;;1.40;;
1174;SDS011;576;48.418;10.074;2023-03-20T02:27:47;3.67;;;2.07;;
1174;SDS011;576;48.418;10.074;2023-03-20T02:31:00;2.73;;;1.87;;
1174;SDS011;576;48.418;10.074;2023-03-20T02:39:58;1.67;;;1.50;;
1174;SDS011;576;48.418;10.074;2023-03-20T02:42:43;1.60;;;1.50;;
1174;SDS011;576;48.418;10.074;2023-03-20T02:45:19;2.10;;;1.73;;
1174;SDS011;576;48.418;10.074;2023-03-20T02:48:05;3.50;;;1.83;;
1174;SDS011;576;48.418;10.074;2023-03-20T02:50:42;1.60;;;1.50;;
1174;SDS011;576;48.418;10.074;2023-03-20T02:53:17;2.00;;;1.90;;
1174;SDS011;576;48.418;10.074;2023-03-20T02:55:55;3.53;;;2.40;;
1174;SDS011;576;48.418;10.074;2023-03-20T02:58:29;2.27;;;2.07;;
1174;SDS011;576;48.418;10.074;2023-03-20T03:01:05;2.00;;;1.90;;
1174;SDS011;576;48.418;10.074;2023-03-20T03:03:41;2.53;;;2.33;;
1174;SDS011;576;48.418;10.074;2023-03-20T03:06:15;2.00;;;1.80;;
1174;SDS011;576;48.418;10.074;2023-03-20T03:08:49;2.13;;;2.03;;
1174;SDS011;576;48.418;10.074;2023-03-20T03:11:23;2.17;;;1.87;;
1174;SDS011;576;48.418;10.074;2023-03-20T03:13:52;1.57;;;1.47;;
1174;SDS011;576;48.418;10.074;2023-03-20T03:16:23;2.03;;;1.93;;
1174;SDS011;576;48.418;10.074;2023-03-20T03:18:58;1.80;;;1.70;;
1174;SDS011;576;48.418;10.074;2023-03-20T03:21:32;1.60;;;1.53;;
1174;SDS011;576;48.418;10.074;2023-03-20T03:24:02;2.30;;;2.20;;
1174;SDS011;576;48.418;10.074;2023-03-20T03:26:33;1.80;;;1.70;;
1174;SDS011;576;48.418;10.074;2023-03-20T03:29:06;1.90;;;1.60;;
1174;SDS011;576;48.418;10.074;2023-03-20T03:31:39;2.10;;;1.90;;
1174;SDS011;576;48.418;10.074;2023-03-20T03:34:10;3.07;;;1.70;;
1174;SDS011;576;48.418;10.074;2023-03-20T03:36:43;1.77;;;1.67;;
1174;SDS011;576;48.418;10.074;2023-03-20T03:39:20;3.00;;;1.70;;
1174;SDS011;576;48.418;10.074;2023-03-20T03:41:59;1.63;;;1.53;;
1174;SDS011;576;48.418;10.074;2023-03-20T03:44:34;1.40;;;1.30;;
1174;SDS011;576;48.418;10.074;2023-03-20T03:47:09;1.67;;;1.50;;
1174;SDS011;576;48.418;10.074;2023-03-20T03:49:41;2.00;;;1.60;;
1174;SDS011;576;48.418;10.074;2023-03-20T03:52:16;2.20;;;1.80;;
1174;SDS011;576;48.418;10.074;2023-03-20T03:54:49;1.47;;;1.37;;
1174;SDS011;576;48.418;10.074;2023-03-20T03:57:34;2.87;;;1.70;;
1174;SDS011;576;48.418;10.074;2023-03-20T04:00:12;1.63;;;1.53;;
1174;SDS011;576;48.418;10.074;2023-03-20T04:02:43;1.80;;;1.70;;
1174;SDS011;576;48.418;10.074;2023-03-20T04:05:14;2.20;;;2.00;;
1174;SDS011;576;48.418;10.074;2023-03-20T04:07:44;1.80;;;1.50;;
1174;SDS011;576;48.418;10.074;2023-03-20T04:10:13;1.47;;;1.37;;
1174;SDS011;576;48.418;10.074;2023-03-20T04:12:43;1.57;;;1.47;;
1174;SDS011;576;48.418;10.074;2023-03-20T04:15:13;1.93;;;1.60;;
1174;SDS011;576;48.418;10.074;2023-03-20T04:17:43;1.40;;;1.30;;
1174;SDS011;576;48.418;10.074;2023-03-20T04:20:13;2.17;;;1.50;;
1174;SDS011;576;48.418;10.074;2023-03-20T04:22:42;2.43;;;2.23;;
1174;SDS011;576;48.418;10.074;2023-03-20T04:25:14;1.90;;;1.80;;
1174;SDS011;576;48.418;10.074;2023-03-20T04:27:46;1.40;;;1.30;;
1174;SDS011;576;48.418;10.074;2023-03-20T04:30:40;1.23;;;1.13;;
1174;SDS011;576;48.418;10.074;2023-03-20T04:33:22;1.70;;;1.30;;
1174;SDS011;576;48.418;10.074;2023-03-20T04:36:11;1.57;;;1.47;;
1174;SDS011;576;48.418;10.074;2023-03-20T04:38:40;1.70;;;1.60;;
1174;SDS011;576;48.418;10.074;2023-03-20T04:41:08;1.60;;;1.50;;
1174;SDS011;576;48.418;10.074;2023-03-20T04:43:38;1.83;;;1.70;;
1174;SDS011;576;48.418;10.074;2023-03-20T04:46:07;1.33;;;1.30;;
1174;SDS011;576;48.418;10.074;2023-03-20T04:48:36;1.53;;;1.40;;
1174;SDS011;576;48.418;10.074;2023-03-20T04:51:04;1.27;;;1.17;;
1174;SDS011;576;48.418;10.074;2023-03-20T04:53:42;1.17;;;1.07;;
1174;SDS011;576;48.418;10.074;2023-03-20T04:56:11;1.33;;;1.17;;
1174;SDS011;576;48.418;10.074;2023-03-20T04:58:40;2.40;;;1.53;;
1174;SDS011;576;48.418;10.074;2023-03-20T05:01:09;1.43;;;1.33;;
1174;SDS011;576;48.418;10.074;2023-03-20T05:03:37;1.43;;;1.40;;
1174;SDS011;576;48.418;10.074;2023-03-20T05:06:06;1.50;;;1.40;;
1174;SDS011;576;48.418;10.074;2023-03-20T05:08:38;1.63;;;1.53;;
1174;SDS011;576;48.418;10.074;2023-03-20T05:11:06;3.17;;;1.97;;
1174;SDS011;576;48.418;10.074;2023-03-20T05:14:10;1.50;;;1.40;;
1174;SDS011;576;48.418;10.074;2023-03-20T05:17:07;1.30;;;1.20;;
1174;SDS011;576;48.418;10.074;2023-03-20T05:19:58;1.97;;;1.67;;
1174;SDS011;576;48.418;10.074;2023-03-20T05:22:52;1.50;;;1.40;;
1174;SDS011;576;48.418;10.074;2023-03-20T05:25:39;1.57;;;1.47;;
1174;SDS011;576;48.418;10.074;2023-03-20T05:28:23;1.00;;;0.90;;
1174;SDS011;576;48.418;10.074;2023-03-20T05:31:12;1.53;;;1.43;;
1174;SDS011;576;48.418;10.074;2023-03-20T05:34:00;1.33;;;1.23;;
1174;SDS011;576;48.418;10.074;2023-03-20T05:36:54;1.10;;;1.10;;
1174;SDS011;576;48.418;10.074;2023-03-20T05:39:44;1.30;;;1.20;;
1174;SDS011;576;48.418;10.074;2023-03-20T05:42:25;1.77;;;1.33;;
1174;SDS011;576;48.418;10.074;2023-03-20T05:45:29;1.70;;;1.60;;
1174;SDS011;576;48.418;10.074;2023-03-20T05:48:30;1.20;;;1.10;;
1174;SDS011;576;48.418;10.074;2023-03-20T05:51:25;1.03;;;1.03;;
1174;SDS011;576;48.418;10.074;2023-03-20T05:54:04;1.70;;;1.20;;
1174;SDS011;576;48.418;10.074;2023-03-20T05:56:55;1.53;;;1.43;;
1174;SDS011;576;48.418;10.074;2023-03-20T05:59:41;1.50;;;1.40;;
1174;SDS011;576;48.418;10.074;2023-03-20T06:02:42;1.47;;;1.37;;
1174;SDS011;576;48.418;10.074;2023-03-20T06:05:38;1.00;;;1.00;;
1174;SDS011;576;48.418;10.074;2023-03-20T06:08:07;1.47;;;1.37;;
1174;SDS011;576;48.418;10.074;2023-03-20T06:10:35;2.33;;;1.80;;
1174;SDS011;576;48.418;10.074;2023-03-20T06:13:04;3.73;;;1.70;;
1174;SDS011;576;48.418;10.074;2023-03-20T06:15:32;2.80;;;1.77;;
1174;SDS011;576;48.418;10.074;2023-03-20T06:18:10;1.80;;;1.60;;
1174;SDS011;576;48.418;10.074;2023-03-20T06:20:40;2.63;;;1.70;;
1174;SDS011;576;48.418;10.074;2023-03-20T06:23:08;1.53;;;1.20;;
1174;SDS011;576;48.418;10.074;2023-03-20T06:25:37;3.10;;;2.10;;
1174;SDS011;576;48.418;10.074;2023-03-20T06:28:06;4.33;;;1.60;;
1174;SDS011;576;48.418;10.074;2023-03-20T06:30:35;2.40;;;1.70;;
1174;SDS011;576;48.418;10.074;2023-03-20T06:33:11;3.33;;;2.13;;
1174;SDS011;576;48.418;10.074;2023-03-20T06:35:57;3.40;;;2.30;;
1174;SDS011;576;48.418;10.074;2023-03-20T06:38:28;5.67;;;1.90;;
1174;SDS011;576;48.418;10.074;2023-03-20T06:40:58;11.53;;;2.80;;
1174;SDS011;576;48.418;10.074;2023-03-20T06:43:26;1.70;;;1.60;;
1174;SDS011;576;48.418;10.074;2023-03-20T06:45:54;1.73;;;1.50;;
1174;SDS011;576;48.418;10.074;2023-03-20T06:48:28;1.60;;;1.50;;
1174;SDS011;576;48.418;10.074;2023-03-20T06:50:58;3.03;;;1.73;;
1174;SDS011;576;48.418;10.074;2023-03-20T06:53:33;1.70;;;1.43;;
1174;SDS011;576;48.418;10.074;2023-03-20T06:56:04;3.03;;;1.73;;
1174;SDS011;576;48.418;10.074;2023-03-20T06:58:33;3.57;;;1.93;;
1174;SDS011;576;48.418;10.074;2023-03-20T07:01:01;3.30;;;1.57;;
1174;SDS011;576;48.418;10.074;2023-03-20T07:03:35;2.67;;;1.80;;
1174;SDS011;576;48.418;10.074;2023-03-20T07:06:05;3.30;;;1.50;;
1174;SDS011;576;48.418;10.074;2023-03-20T07:08:35;2.00;;;1.73;;
1174;SDS011;576;48.418;10.074;2023-03-20T07:11:03;2.50;;;1.63;;
1174;SDS011;576;48.418;10.074;2023-03-20T07:13:32;4.07;;;1.97;;
1174;SDS011;576;48.418;10.074;2023-03-20T07:16:10;2.50;;;1.73;;
1174;SDS011;576;48.418;10.074;2023-03-20T07:18:39;3.27;;;1.60;;
1174;SDS011;576;48.418;10.074;2023-03-20T07:21:09;3.80;;;1.73;;
1174;SDS011;576;48.418;10.074;2023-03-20T07:23:45;1.60;;;1.50;;
1174;SDS011;576;48.418;10.074;2023-03-20T07:26:13;1.80;;;1.37;;
1174;SDS011;576;48.418;10.074;2023-03-20T07:28:42;3.87;;;1.50;;
1174;SDS011;576;48.418;10.074;2023-03-20T07:31:19;3.83;;;2.30;;
1174;SDS011;576;48.418;10.074;2023-03-20T07:33:53;2.27;;;1.50;;
1174;SDS011;576;48.418;10.074;2023-03-20T07:36:24;4.67;;;1.80;;
1174;SDS011;576;48.418;10.074;2023-03-20T07:38:52;2.10;;;1.67;;
1174;SDS011;576;48.418;10.074;2023-03-20T07:41:20;2.50;;;1.67;;
1174;SDS011;576;48.418;10.074;2023-03-20T07:43:59;1.57;;;1.20;;
1174;SDS011;576;48.418;10.074;2023-03-20T07:46:27;2.10;;;1.73;;
1174;SDS011;576;48.418;10.074;2023-03-20T07:48:58;1.73;;;1.63;;
1174;SDS011;576;48.418;10.074;2023-03-20T07:51:28;6.57;;;1.90;;
1174;SDS011;576;48.418;10.074;2023-03-20T07:53:56;2.10;;;1.63;;
1174;SDS011;576;48.418;10.074;2023-03-20T07:56:24;1.63;;;1.40;;
1174;SDS011;576;48.418;10.074;2023-03-20T07:58:53;3.77;;;1.70;;
1174;SDS011;576;48.418;10.074;2023-03-20T08:01:21;3.73;;;1.83;;
1174;SDS011;576;48.418;10.074;2023-03-20T08:03:49;2.47;;;1.30;;
1174;SDS011;576;48.418;10.074;2023-03-20T08:06:18;2.00;;;1.47;;
1174;SDS011;576;48.418;10.074;2023-03-20T08:08:48;1.10;;;1.10;;
1174;SDS011;576;48.418;10.074;2023-03-20T08:11:18;1.50;;;1.40;;
1174;SDS011;576;48.418;10.074;2023-03-20T08:13:47;1.83;;;1.27;;
1174;SDS011;576;48.418;10.074;2023-03-20T08:16:15;3.80;;;1.87;;
1174;SDS011;576;48.418;10.074;2023-03-20T08:18:43;2.60;;;1.70;;
1174;SDS011;576;48.418;10.074;2023-03-20T08:21:11;1.47;;;1.37;;
1174;SDS011;576;48.418;10.074;2023-03-20T08:23:39;1.83;;;1.60;;
1174;SDS011;576;48.418;10.074;2023-03-20T08:26:09;2.23;;;1.37;;
1174;SDS011;576;48.418;10.074;2023-03-20T08:28:37;1.27;;;1.10;;
1174;SDS011;576;48.418;10.074;2023-03-20T08:31:13;3.13;;;1.53;;
1174;SDS011;576;48.418;10.074;2023-03-20T08:33:43;1.40;;;1.30;;
1174;SDS011;576;48.418;10.074;2023-03-20T08:36:12;3.17;;;1.43;;
1174;SDS011;576;48.418;10.074;2023-03-20T08:38:41;1.80;;;1.53;;
1174;SDS011;576;48.418;10.074;2023-03-20T08:41:11;1.43;;;1.33;;
1174;SDS011;576;48.418;10.074;2023-03-20T08:43:39;1.93;;;1.57;;
1174;SDS011;576;48.418;10.074;2023-03-20T08:46:08;2.63;;;1.40;;
1174;SDS011;576;48.418;10.074;2023-03-20T08:48:36;1.40;;;1.17;;
1174;SDS011;576;48.418;10.074;2023-03-20T08:51:04;3.00;;;1.40;;
1174;SDS011;576;48.418;10.074;2023-03-20T08:53:34;2.67;;;1.83;;
1174;SDS011;576;48.418;10.074;2023-03-20T08:56:03;4.30;;;1.60;;
1174;SDS011;576;48.418;10.074;2023-03-20T08:58:33;1.50;;;1.40;;
1174;SDS011;576;48.418;10.074;2023-03-20T09:01:04;1.40;;;1.30;;
1174;SDS011;576;48.418;10.074;2023-03-20T09:03:34;1.77;;;1.30;;
1174;SDS011;576;48.418;10.074;2023-03-20T09:06:03;3.63;;;1.57;;
1174;SDS011;576;48.418;10.074;2023-03-20T09:08:32;1.30;;;1.20;;
1174;SDS011;576;48.418;10.074;2023-03-20T09:11:01;2.30;;;1.30;;
1174;SDS011;576;48.418;10.074;2023-03-20T09:13:29;2.33;;;1.70;;
1174;SDS011;576;48.418;10.074;2023-03-20T09:15:58;1.30;;;1.20;;
1174;SDS011;576;48.418;10.074;2023-03-20T09:18:27;1.40;;;1.30;;
1174;SDS011;576;48.418;10.074;2023-03-20T09:20:55;1.67;;;1.40;;
1174;SDS011;576;48.418;10.074;2023-03-20T09:23:23;1.47;;;1.37;;
1174;SDS011;576;48.418;10.074;2023-03-20T09:25:51;1.80;;;1.60;;
1174;SDS011;576;48.418;10.074;2023-03-20T09:28:20;2.07;;;1.70;;
1174;SDS011;576;48.418;10.074;2023-03-20T09:30:48;1.60;;;1.50;;
1174;SDS011;576;48.418;10.074;2023-03-20T09:33:18;1.73;;;1.63;;
1174;SDS011;576;48.418;10.074;2023-03-20T09:35:46;7.03;;;1.47;;
1174;SDS011;576;48.418;10.074;2023-03-20T09:38:14;2.00;;;1.57;;
1174;SDS011;576;48.418;10.074;2023-03-20T09:40:49;1.80;;;1.60;;
1174;SDS011;576;48.418;10.074;2023-03-20T09:43:23;1.40;;;1.17;;
1174;SDS011;576;48.418;10.074;2023-03-20T09:46:06;2.30;;;1.13;;
1174;SDS011;576;48.418;10.074;2023-03-20T09:48:47;1.33;;;1.23;;
1174;SDS011;576;48.418;10.074;2023-03-20T09:51:22;2.10;;;1.30;;
1174;SDS011;576;48.418;10.074;2023-03-20T09:53:58;1.57;;;1.30;;
1174;SDS011;576;48.418;10.074;2023-03-20T09:56:30;1.33;;;1.23;;
1174;SDS011;576;48.418;10.074;2023-03-20T09:59:00;1.50;;;1.40;;
1174;SDS011;576;48.418;10.074;2023-03-20T10:01:32;1.67;;;1.20;;
1174;SDS011;576;48.418;10.074;2023-03-20T10:04:07;3.30;;;1.37;;
1174;SDS011;576;48.418;10.074;2023-03-20T10:06:37;1.47;;;1.07;;
1174;SDS011;576;48.418;10.074;2023-03-20T10:09:08;1.17;;;1.07;;
1174;SDS011;576;48.418;10.074;2023-03-20T10:11:49;1.90;;;1.80;;
1174;SDS011;576;48.418;10.074;2023-03-20T10:14:31;1.43;;;1.33;;
1174;SDS011;576;48.418;10.074;2023-03-20T10:17:11;1.23;;;1.13;;
1174;SDS011;576;48.418;10.074;2023-03-20T10:19:50;1.53;;;1.43;;
1174;SDS011;576;48.418;10.074;2023-03-20T10:22:24;1.30;;;1.20;;
1174;SDS011;576;48.418;10.074;2023-03-20T10:24:57;4.20;;;1.20;;
1174;SDS011;576;48.418;10.074;2023-03-20T10:27:30;2.20;;;1.13;;
1174;SDS011;576;48.418;10.074;2023-03-20T10:30:10;2.87;;;1.13;;
1174;SDS011;576;48.418;10.074;2023-03-20T10:32:51;1.47;;;1.10;;
1174;SDS011;576;48.418;10.074;2023-03-20T10:35:32;1.37;;;1.27;;
1174;SDS011;576;48.418;10.074;2023-03-20T10:38:09;1.63;;;1.20;;
1174;SDS011;576;48.418;10.074;2023-03-20T10:40:44;1.37;;;1.27;;
1174;SDS011;576;48.418;10.074;2023-03-20T10:43:13;2.60;;;1.60;;
1174;SDS011;576;48.418;10.074;2023-03-20T10:45:45;1.33;;;1.30;;
1174;SDS011;576;48.418;10.074;2023-03-20T10:48:19;2.53;;;1.77;;
1174;SDS011;576;48.418;10.074;2023-03-20T10:50:52;1.27;;;1.17;;
1174;SDS011;576;48.418;10.074;2023-03-20T10:53:24;1.10;;;0.97;;
1174;SDS011;576;48.418;10.074;2023-03-20T10:55:57;1.30;;;1.17;;
1174;SDS011;576;48.418;10.074;2023-03-20T10:58:29;1.10;;;1.03;;
1174;SDS011;576;48.418;10.074;2023-03-20T11:01:02;0.93;;;0.93;;
1174;SDS011;576;48.418;10.074;2023-03-20T11:03:31;1.20;;;1.10;;
1174;SDS011;576;48.418;10.074;2023-03-20T11:06:06;3.87;;;2.23;;
1174;SDS011;576;48.418;10.074;2023-03-20T11:08:42;1.63;;;1.23;;
1174;SDS011;576;48.418;10.074;2023-03-20T11:11:17;1.00;;;0.90;;
1174;SDS011;576;48.418;10.074;2023-03-20T11:13:49;1.50;;;1.40;;
1174;SDS011;576;48.418;10.074;2023-03-20T11:16:19;3.50;;;1.37;;
1174;SDS011;576;48.418;10.074;2023-03-20T11:18:49;1.20;;;1.10;;
1174;SDS011;576;48.418;10.074;2023-03-20T11:21:21;1.00;;;1.00;;
1174;SDS011;576;48.418;10.074;2023-03-20T11:23:51;1.77;;;1.67;;
1174;SDS011;576;48.418;10.074;2023-03-20T11:26:27;1.00;;;0.97;;
1174;SDS011;576;48.418;10.074;2023-03-20T11:29:01;1.40;;;1.30;;
1174;SDS011;576;48.418;10.074;2023-03-20T11:31:32;1.40;;;1.30;;
1174;SDS011;576;48.418;10.074;2023-03-20T11:34:09;0.90;;;0.90;;
1174;SDS011;576;48.418;10.074;2023-03-20T11:36:55;1.23;;;1.13;;
1174;SDS011;576;48.418;10.074;2023-03-20T11:39:35;1.67;;;1.20;;
1174;SDS011;576;48.418;10.074;2023-03-20T11:42:18;3.60;;;1.00;;
1174;SDS011;576;48.418;10.074;2023-03-20T11:44:55;3.77;;;1.30;;
1174;SDS011;576;48.418;10.074;2023-03-20T11:47:25;0.80;;;0.80;;
1174;SDS011;576;48.418;10.074;2023-03-20T11:49:56;1.63;;;1.00;;
1174;SDS011;576;48.418;10.074;2023-03-20T11:52:28;1.73;;;1.00;;
1174;SDS011;576;48.418;10.074;2023-03-20T11:55:00;1.00;;;0.90;;
1174;SDS011;576;48.418;10.074;2023-03-20T11:57:33;2.00;;;1.00;;
1174;SDS011;576;48.418;10.074;2023-03-20T12:00:04;1.10;;;1.00;;
1174;SDS011;576;48.418;10.074;2023-03-20T12:02:43;1.20;;;1.00;;
1174;SDS011;576;48.418;10.074;2023-03-20T12:05:17;1.67;;;1.10;;
1174;SDS011;576;48.418;10.074;2023-03-20T12:07:55;1.30;;;1.20;;
1174;SDS011;576;48.418;10.074;2023-03-20T12:10:27;1.60;;;1.10;;
1174;SDS011;576;48.418;10.074;2023-03-20T12:13:00;1.53;;;1.03;;
1174;SDS011;576;48.418;10.074;2023-03-20T12:15:33;1.17;;;1.10;;
1174;SDS011;576;48.418;10.074;2023-03-20T12:18:05;1.10;;;1.00;;
1174;SDS011;576;48.418;10.074;2023-03-20T12:20:43;1.13;;;1.10;;
1174;SDS011;576;48.418;10.074;2023-03-20T12:23:21;1.20;;;1.00;;
1174;SDS011;576;48.418;10.074;2023-03-20T12:25:56;1.43;;;1.00;;
1174;SDS011;576;48.418;10.074;2023-03-20T12:28:31;2.80;;;1.60;;
1174;SDS011;576;48.418;10.074;2023-03-20T12:31:06;3.10;;;1.10;;
1174;SDS011;576;48.418;10.074;2023-03-20T12:33:51;1.67;;;1.10;;
1174;SDS011;576;48.418;10.074;2023-03-20T12:36:24;3.40;;;1.67;;
1174;SDS011;576;48.418;10.074;2023-03-20T12:38:59;2.10;;;1.90;;
1174;SDS011;576;48.418;10.074;2023-03-20T12:41:34;3.20;;;1.70;;
1174;SDS011;576;48.418;10.074;2023-03-20T12:44:12;2.63;;;1.87;;
1174;SDS011;576;48.418;10.074;2023-03-20T12:46:47;3.00;;;2.27;;
1174;SDS011;576;48.418;10.074;2023-03-20T12:49:28;3.17;;;2.30;;
1174;SDS011;576;48.418;10.074;2023-03-20T12:52:10;2.40;;;1.83;;
1174;SDS011;576;48.418;10.074;2023-03-20T12:54:55;2.43;;;1.90;;
1174;SDS011;576;48.418;10.074;2023-03-20T12:57:32;3.33;;;1.87;;
1174;SDS011;576;48.418;10.074;2023-03-20T13:00:14;4.97;;;2.63;;
1174;SDS011;576;48.418;10.074;2023-03-20T13:02:53;6.83;;;2.53;;
1174;SDS011;576;48.418;10.074;2023-03-20T13:05:33;5.87;;;2.30;;
1174;SDS011;576;48.418;10.074;2023-03-20T13:08:20;7.80;;;2.93;;
1174;SDS011;576;48.418;10.074;2023-03-20T13:11:06;6.10;;;2.53;;
1174;SDS011;576;48.418;10.074;2023-03-20T13:13:41;6.00;;;2.30;;
1174;SDS011;576;48.418;10.074;2023-03-20T13:16:18;5.73;;;2.90;;
1174;SDS011;576;48.418;10.074;2023-03-20T13:18:52;6.57;;;2.70;;
1174;SDS011;576;48.418;10.074;2023-03-20T13:21:26;5.57;;;2.50;;
1174;SDS011;576;48.418;10.074;2023-03-20T13:24:06;5.00;;;2.30;;
1174;SDS011;576;48.418;10.074;2023-03-20T13:26:48;4.00;;;2.00;;
1174;SDS011;576;48.418;10.074;2023-03-20T13:29:26;3.80;;;2.10;;
1174;SDS011;576;48.418;10.074;2023-03-20T13:32:02;5.20;;;2.30;;
1174;SDS011;576;48.418;10.074;2023-03-20T13:34:48;2.50;;;2.13;;
1174;SDS011;576;48.418;10.074;2023-03-20T13:37:27;3.80;;;2.10;;
1174;SDS011;576;48.418;10.074;2023-03-20T13:40:05;4.10;;;2.80;;
1174;SDS011;576;48.418;10.074;2023-03-20T13:42:43;2.60;;;1.73;;
1174;SDS011;576;48.418;10.074;2023-03-20T13:45:20;6.83;;;2.50;;
1174;SDS011;576;48.418;10.074;2023-03-20T13:47:57;2.10;;;1.90;;
1174;SDS011;576;48.418;10.074;2023-03-20T13:50:34;4.53;;;2.20;;
1174;SDS011;576;48.418;10.074;2023-03-20T13:53:12;4.73;;;2.00;;
1174;SDS011;576;48.418;10.074;2023-03-20T13:55:51;4.53;;;2.20;;
1174;SDS011;576;48.418;10.074;2023-03-20T13:58:31;6.60;;;2.10;;
1174;SDS011;576;48.418;10.074;2023-03-20T14:01:14;4.10;;;2.17;;
1174;SDS011;576;48.418;10.074;2023-03-20T14:03:48;3.10;;;2.27;;
1174;SDS011;576;48.418;10.074;2023-03-20T14:06:34;6.67;;;3.50;;
1174;SDS011;576;48.418;10.074;2023-03-20T14:09:25;4.40;;;2.57;;
1174;SDS011;576;48.418;10.074;2023-03-20T14:11:57;4.20;;;3.10;;
1174;SDS011;576;48.418;10.074;2023-03-20T14:14:29;4.70;;;2.47;;
1174;SDS011;576;48.418;10.074;2023-03-20T14:17:03;6.27;;;2.27;;
1174;SDS011;576;48.418;10.074;2023-03-20T14:19:38;3.70;;;2.43;;
1174;SDS011;576;48.418;10.074;2023-03-20T14:22:06;6.57;;;2.43;;
1174;SDS011;576;48.418;10.074;2023-03-20T14:24:45;6.70;;;2.10;;
1174;SDS011;576;48.418;10.074;2023-03-20T14:27:20;5.37;;;2.70;;
1174;SDS011;576;48.418;10.074;2023-03-20T14:33:22;4.30;;;2.40;;
1174;SDS011;576;48.418;10.074;2023-03-20T14:38:55;4.43;;;2.10;;
1174;SDS011;576;48.418;10.074;2023-03-20T14:41:34;5.63;;;1.93;;
1174;SDS011;576;48.418;10.074;2023-03-20T14:44:15;5.80;;;2.83;;
1174;SDS011;576;48.418;10.074;2023-03-20T14:46:53;3.47;;;2.53;;
1174;SDS011;576;48.418;10.074;2023-03-20T14:49:32;2.77;;;1.90;;
1174;SDS011;576;48.418;10.074;2023-03-20T14:52:19;9.50;;;2.70;;
1174;SDS011;576;48.418;10.074;2023-03-20T14:54:55;3.37;;;2.27;;
1174;SDS011;576;48.418;10.074;2023-03-20T14:57:43;4.23;;;2.10;;
1174;SDS011;576;48.418;10.074;2023-03-20T15:00:22;2.90;;;2.10;;
1174;SDS011;576;48.418;10.074;2023-03-20T15:02:56;11.33;;;2.90;;
1174;SDS011;576;48.418;10.074;2023-03-20T15:05:32;4.70;;;2.37;;
1174;SDS011;576;48.418;10.074;2023-03-20T15:08:03;4.77;;;2.27;;
1174;SDS011;576;48.418;10.074;2023-03-20T15:10:34;4.63;;;2.40;;
1174;SDS011;576;48.418;10.074;2023-03-20T15:13:05;2.07;;;1.70;;
1174;SDS011;576;48.418;10.074;2023-03-20T15:15:34;3.03;;;2.17;;
1174;SDS011;576;48.418;10.074;2023-03-20T15:18:05;3.93;;;2.43;;
1174;SDS011;576;48.418;10.074;2023-03-20T15:20:38;3.30;;;2.13;;
1174;SDS011;576;48.418;10.074;2023-03-20T15:23:10;4.70;;;1.97;;
1174;SDS011;576;48.418;10.074;2023-03-20T15:25:42;5.30;;;2.47;;
1174;SDS011;576;48.418;10.074;2023-03-20T15:28:12;5.73;;;2.53;;
1174;SDS011;576;48.418;10.074;2023-03-20T15:30:45;6.27;;;2.00;;
1174;SDS011;576;48.418;10.074;2023-03-20T15:33:17;5.97;;;1.97;;
1174;SDS011;576;48.418;10.074;2023-03-20T15:35:52;4.10;;;2.00;;
1174;SDS011;576;48.418;10.074;2023-03-20T15:38:20;4.33;;;2.23;;
1174;SDS011;576;48.418;10.074;2023-03-20T15:40:52;4.27;;;2.20;;
1174;SDS011;576;48.418;10.074;2023-03-20T15:43:22;2.93;;;2.10;;
1174;SDS011;576;48.418;10.074;2023-03-20T15:45:52;5.40;;;2.33;;
1174;SDS011;576;48.418;10.074;2023-03-20T15:48:47;3.80;;;2.13;;
1174;SDS011;576;48.418;10.074;2023-03-20T15:51:15;3.03;;;2.53;;
1174;SDS011;576;48.418;10.074;2023-03-20T15:53:45;7.83;;;2.30;;
1174;SDS011;576;48.418;10.074;2023-03-20T15:56:15;3.37;;;2.10;;
1174;SDS011;576;48.418;10.074;2023-03-20T15:58:46;4.83;;;2.90;;
1174;SDS011;576;48.418;10.074;2023-03-20T16:01:18;4.83;;;2.40;;
1174;SDS011;576;48.418;10.074;2023-03-20T16:03:50;2.57;;;1.60;;
1174;SDS011;576;48.418;10.074;2023-03-20T16:06:19;4.50;;;2.00;;
1174;SDS011;576;48.418;10.074;2023-03-20T16:08:55;3.93;;;1.53;;
1174;SDS011;576;48.418;10.074;2023-03-20T16:11:32;3.17;;;2.33;;
1174;SDS011;576;48.418;10.074;2023-03-20T16:14:03;2.40;;;2.20;;
1174;SDS011;576;48.418;10.074;2023-03-20T16:16:32;7.27;;;1.93;;
1174;SDS011;576;48.418;10.074;2023-03-20T16:19:04;3.23;;;1.50;;